sensor_id;sensor_type;location;lat;lon;timestamp;P1;durP1;ratioP1;P2;durP2;ratioP2
10831;SDS011;5469;48.574;8.768;2022-07-10T00:00:20;0.90;;;0.88;;
10831;SDS011;5469;48.574;8.768;2022-07-10T00:02:53;1.23;;;1.10;;
10831;SDS011;5469;48.574;8.768;2022-07-10T00:05:27;1.20;;;0.90;;
10831;SDS011;5469;48.574;8.768;2022-07-10T00:08:01;1.63;;;0.90;;
10831;SDS011;5469;48.574;8.768;2022-07-10T00:10:36;1.15;;;0.98;;
10831;SDS011;5469;48.574;8.768;2022-07-10T00:13:10;0.90;;;0.80;;
10831;SDS011;5469;48.574;8.768;2022-07-10T00:15:43;1.17;;;0.93;;
10831;SDS011;5469;48.574;8.768;2022-07-10T00:18:17;0.98;;;0.98;;
10831;SDS011;5469;48.574;8.768;2022-07-10T00:20:50;0.90;;;0.90;;
10831;SDS011;5469;48.574;8.768;2022-07-10T00:23:23;1.08;;;0.98;;
10831;SDS011;5469;48.574;8.768;2022-07-10T00:25:58;0.80;;;0.80;;
10831;SDS011;5469;48.574;8.768;2022-07-10T00:28:32;0.98;;;0.98;;
10831;SDS011;5469;48.574;8.768;2022-07-10T00:31:05;1.33;;;1.23;;
10831;SDS011;5469;48.574;8.768;2022-07-10T00:33:42;1.33;;;1.00;;
10831;SDS011;5469;48.574;8.768;2022-07-10T00:36:15;0.80;;;0.80;;
10831;SDS011;5469;48.574;8.768;2022-07-10T00:38:49;1.02;;;0.93;;
10831;SDS011;5469;48.574;8.768;2022-07-10T00:41:23;0.88;;;0.88;;
10831;SDS011;5469;48.574;8.768;2022-07-10T00:43:57;0.82;;;0.80;;
10831;SDS011;5469;48.574;8.768;2022-07-10T00:46:32;1.52;;;1.05;;
10831;SDS011;5469;48.574;8.768;2022-07-10T00:49:06;0.85;;;0.80;;
10831;SDS011;5469;48.574;8.768;2022-07-10T00:51:40;1.90;;;1.08;;
10831;SDS011;5469;48.574;8.768;2022-07-10T00:54:14;1.60;;;1.17;;
10831;SDS011;5469;48.574;8.768;2022-07-10T00:56:49;0.80;;;0.80;;
10831;SDS011;5469;48.574;8.768;2022-07-10T00:59:22;1.48;;;1.00;;
10831;SDS011;5469;48.574;8.768;2022-07-10T01:01:57;1.05;;;0.98;;
10831;SDS011;5469;48.574;8.768;2022-07-10T01:04:31;1.23;;;1.00;;
10831;SDS011;5469;48.574;8.768;2022-07-10T01:07:05;1.10;;;1.10;;
10831;SDS011;5469;48.574;8.768;2022-07-10T01:09:38;1.48;;;0.80;;
10831;SDS011;5469;48.574;8.768;2022-07-10T01:12:13;1.92;;;1.00;;
10831;SDS011;5469;48.574;8.768;2022-07-10T01:14:48;1.20;;;1.10;;
10831;SDS011;5469;48.574;8.768;2022-07-10T01:17:22;1.30;;;1.10;;
10831;SDS011;5469;48.574;8.768;2022-07-10T01:19:56;1.30;;;1.20;;
10831;SDS011;5469;48.574;8.768;2022-07-10T01:22:31;1.00;;;1.00;;
10831;SDS011;5469;48.574;8.768;2022-07-10T01:25:04;1.02;;;1.02;;
10831;SDS011;5469;48.574;8.768;2022-07-10T01:27:39;2.55;;;1.30;;
10831;SDS011;5469;48.574;8.768;2022-07-10T01:30:12;1.23;;;1.08;;
10831;SDS011;5469;48.574;8.768;2022-07-10T01:32:46;1.30;;;1.20;;
10831;SDS011;5469;48.574;8.768;2022-07-10T01:35:20;1.97;;;1.13;;
10831;SDS011;5469;48.574;8.768;2022-07-10T01:37:55;0.85;;;0.85;;
10831;SDS011;5469;48.574;8.768;2022-07-10T01:40:28;1.00;;;1.00;;
10831;SDS011;5469;48.574;8.768;2022-07-10T01:43:02;1.20;;;1.20;;
10831;SDS011;5469;48.574;8.768;2022-07-10T01:45:35;3.20;;;1.30;;
10831;SDS011;5469;48.574;8.768;2022-07-10T01:48:09;0.97;;;0.90;;
10831;SDS011;5469;48.574;8.768;2022-07-10T01:50:43;1.20;;;1.00;;
10831;SDS011;5469;48.574;8.768;2022-07-10T01:53:17;1.20;;;1.10;;
10831;SDS011;5469;48.574;8.768;2022-07-10T01:55:51;1.30;;;1.20;;
10831;SDS011;5469;48.574;8.768;2022-07-10T01:58:24;1.38;;;1.10;;
10831;SDS011;5469;48.574;8.768;2022-07-10T02:00:58;0.90;;;0.90;;
10831;SDS011;5469;48.574;8.768;2022-07-10T02:03:31;0.93;;;0.90;;
10831;SDS011;5469;48.574;8.768;2022-07-10T02:06:37;1.27;;;1.00;;
10831;SDS011;5469;48.574;8.768;2022-07-10T02:09:12;1.43;;;1.07;;
10831;SDS011;5469;48.574;8.768;2022-07-10T02:11:46;1.33;;;0.90;;
10831;SDS011;5469;48.574;8.768;2022-07-10T02:14:20;1.10;;;1.00;;
10831;SDS011;5469;48.574;8.768;2022-07-10T02:16:53;0.90;;;0.90;;
10831;SDS011;5469;48.574;8.768;2022-07-10T02:19:27;2.63;;;1.13;;
10831;SDS011;5469;48.574;8.768;2022-07-10T02:22:00;1.48;;;1.38;;
10831;SDS011;5469;48.574;8.768;2022-07-10T02:24:35;1.33;;;1.13;;
10831;SDS011;5469;48.574;8.768;2022-07-10T02:27:09;1.20;;;1.10;;
10831;SDS011;5469;48.574;8.768;2022-07-10T02:29:42;1.20;;;1.10;;
10831;SDS011;5469;48.574;8.768;2022-07-10T02:32:15;1.20;;;1.10;;
10831;SDS011;5469;48.574;8.768;2022-07-10T02:34:49;1.43;;;1.33;;
10831;SDS011;5469;48.574;8.768;2022-07-10T02:37:22;1.20;;;1.10;;
10831;SDS011;5469;48.574;8.768;2022-07-10T02:39:58;1.17;;;1.07;;
10831;SDS011;5469;48.574;8.768;2022-07-10T02:42:31;2.53;;;1.37;;
10831;SDS011;5469;48.574;8.768;2022-07-10T02:45:05;1.20;;;1.10;;
10831;SDS011;5469;48.574;8.768;2022-07-10T02:47:39;1.57;;;1.47;;
10831;SDS011;5469;48.574;8.768;2022-07-10T02:50:13;1.60;;;1.50;;
10831;SDS011;5469;48.574;8.768;2022-07-10T02:52:47;1.47;;;1.27;;
10831;SDS011;5469;48.574;8.768;2022-07-10T02:55:22;1.40;;;1.30;;
10831;SDS011;5469;48.574;8.768;2022-07-10T02:57:55;1.63;;;1.37;;
10831;SDS011;5469;48.574;8.768;2022-07-10T03:00:28;1.37;;;1.20;;
10831;SDS011;5469;48.574;8.768;2022-07-10T03:03:02;1.97;;;1.23;;
10831;SDS011;5469;48.574;8.768;2022-07-10T03:05:35;2.80;;;1.50;;
10831;SDS011;5469;48.574;8.768;2022-07-10T03:08:09;2.13;;;1.57;;
10831;SDS011;5469;48.574;8.768;2022-07-10T03:10:43;1.53;;;1.43;;
10831;SDS011;5469;48.574;8.768;2022-07-10T03:13:17;1.73;;;1.60;;
10831;SDS011;5469;48.574;8.768;2022-07-10T03:15:53;1.63;;;1.53;;
10831;SDS011;5469;48.574;8.768;2022-07-10T03:18:26;1.83;;;1.70;;
10831;SDS011;5469;48.574;8.768;2022-07-10T03:21:00;2.00;;;1.80;;
10831;SDS011;5469;48.574;8.768;2022-07-10T03:23:33;1.83;;;1.60;;
10831;SDS011;5469;48.574;8.768;2022-07-10T03:26:08;2.00;;;1.77;;
10831;SDS011;5469;48.574;8.768;2022-07-10T03:28:41;1.40;;;1.30;;
10831;SDS011;5469;48.574;8.768;2022-07-10T03:31:15;1.90;;;1.60;;
10831;SDS011;5469;48.574;8.768;2022-07-10T03:33:48;2.10;;;1.67;;
10831;SDS011;5469;48.574;8.768;2022-07-10T03:36:24;3.10;;;2.00;;
10831;SDS011;5469;48.574;8.768;2022-07-10T03:38:57;2.20;;;2.00;;
10831;SDS011;5469;48.574;8.768;2022-07-10T03:41:32;3.87;;;1.83;;
10831;SDS011;5469;48.574;8.768;2022-07-10T03:44:05;1.87;;;1.40;;
10831;SDS011;5469;48.574;8.768;2022-07-10T03:46:39;2.03;;;1.80;;
10831;SDS011;5469;48.574;8.768;2022-07-10T03:49:12;2.17;;;1.77;;
10831;SDS011;5469;48.574;8.768;2022-07-10T03:51:45;1.93;;;1.73;;
10831;SDS011;5469;48.574;8.768;2022-07-10T03:54:19;1.43;;;1.33;;
10831;SDS011;5469;48.574;8.768;2022-07-10T03:56:54;1.63;;;1.53;;
10831;SDS011;5469;48.574;8.768;2022-07-10T03:59:44;4.03;;;1.73;;
10831;SDS011;5469;48.574;8.768;2022-07-10T04:02:18;1.70;;;1.60;;
10831;SDS011;5469;48.574;8.768;2022-07-10T04:04:52;2.43;;;2.00;;
10831;SDS011;5469;48.574;8.768;2022-07-10T04:07:26;2.20;;;2.00;;
10831;SDS011;5469;48.574;8.768;2022-07-10T04:09:59;2.00;;;1.60;;
10831;SDS011;5469;48.574;8.768;2022-07-10T04:12:34;2.17;;;1.50;;
10831;SDS011;5469;48.574;8.768;2022-07-10T04:15:07;2.17;;;1.60;;
10831;SDS011;5469;48.574;8.768;2022-07-10T04:17:41;3.00;;;1.53;;
10831;SDS011;5469;48.574;8.768;2022-07-10T04:20:15;2.10;;;1.90;;
10831;SDS011;5469;48.574;8.768;2022-07-10T04:22:49;1.80;;;1.70;;
10831;SDS011;5469;48.574;8.768;2022-07-10T04:25:22;1.80;;;1.70;;
10831;SDS011;5469;48.574;8.768;2022-07-10T04:27:57;1.60;;;1.50;;
10831;SDS011;5469;48.574;8.768;2022-07-10T04:30:30;1.50;;;1.40;;
10831;SDS011;5469;48.574;8.768;2022-07-10T04:33:04;1.30;;;1.20;;
10831;SDS011;5469;48.574;8.768;2022-07-10T04:35:38;1.57;;;1.47;;
10831;SDS011;5469;48.574;8.768;2022-07-10T04:38:11;1.93;;;1.40;;
10831;SDS011;5469;48.574;8.768;2022-07-10T04:40:44;1.60;;;1.50;;
10831;SDS011;5469;48.574;8.768;2022-07-10T04:43:19;1.00;;;1.00;;
10831;SDS011;5469;48.574;8.768;2022-07-10T04:45:53;1.77;;;1.60;;
10831;SDS011;5469;48.574;8.768;2022-07-10T04:48:26;2.03;;;1.60;;
10831;SDS011;5469;48.574;8.768;2022-07-10T04:50:59;3.23;;;1.40;;
10831;SDS011;5469;48.574;8.768;2022-07-10T04:53:33;1.50;;;1.40;;
10831;SDS011;5469;48.574;8.768;2022-07-10T04:56:06;1.27;;;1.17;;
10831;SDS011;5469;48.574;8.768;2022-07-10T04:58:41;0.90;;;0.90;;
10831;SDS011;5469;48.574;8.768;2022-07-10T05:01:15;2.90;;;1.13;;
10831;SDS011;5469;48.574;8.768;2022-07-10T05:03:48;0.90;;;0.90;;
10831;SDS011;5469;48.574;8.768;2022-07-10T05:06:21;1.73;;;0.93;;
10831;SDS011;5469;48.574;8.768;2022-07-10T05:08:54;3.37;;;1.23;;
10831;SDS011;5469;48.574;8.768;2022-07-10T05:11:28;1.50;;;1.00;;
10831;SDS011;5469;48.574;8.768;2022-07-10T05:14:04;1.13;;;0.97;;
10831;SDS011;5469;48.574;8.768;2022-07-10T05:16:38;1.00;;;0.90;;
10831;SDS011;5469;48.574;8.768;2022-07-10T05:19:11;0.97;;;0.97;;
10831;SDS011;5469;48.574;8.768;2022-07-10T05:21:44;2.00;;;0.90;;
10831;SDS011;5469;48.574;8.768;2022-07-10T05:24:18;1.77;;;1.20;;
10831;SDS011;5469;48.574;8.768;2022-07-10T05:26:51;1.97;;;1.20;;
10831;SDS011;5469;48.574;8.768;2022-07-10T05:29:26;1.83;;;1.03;;
10831;SDS011;5469;48.574;8.768;2022-07-10T05:32:00;1.47;;;0.80;;
10831;SDS011;5469;48.574;8.768;2022-07-10T05:34:33;0.90;;;0.90;;
10831;SDS011;5469;48.574;8.768;2022-07-10T05:37:06;0.60;;;0.60;;
10831;SDS011;5469;48.574;8.768;2022-07-10T05:39:40;0.80;;;0.80;;
10831;SDS011;5469;48.574;8.768;2022-07-10T05:42:13;1.93;;;0.83;;
10831;SDS011;5469;48.574;8.768;2022-07-10T05:44:48;1.70;;;1.00;;
10831;SDS011;5469;48.574;8.768;2022-07-10T05:47:21;1.73;;;0.77;;
10831;SDS011;5469;48.574;8.768;2022-07-10T05:49:54;1.17;;;1.07;;
10831;SDS011;5469;48.574;8.768;2022-07-10T05:52:28;1.37;;;0.87;;
10831;SDS011;5469;48.574;8.768;2022-07-10T05:55:01;0.70;;;0.70;;
10831;SDS011;5469;48.574;8.768;2022-07-10T05:57:35;0.80;;;0.70;;
10831;SDS011;5469;48.574;8.768;2022-07-10T06:00:11;1.30;;;0.80;;
10831;SDS011;5469;48.574;8.768;2022-07-10T06:02:45;1.40;;;0.80;;
10831;SDS011;5469;48.574;8.768;2022-07-10T06:05:18;1.40;;;0.80;;
10831;SDS011;5469;48.574;8.768;2022-07-10T06:07:51;1.20;;;0.93;;
10831;SDS011;5469;48.574;8.768;2022-07-10T06:10:25;0.93;;;0.90;;
10831;SDS011;5469;48.574;8.768;2022-07-10T06:12:58;0.80;;;0.80;;
10831;SDS011;5469;48.574;8.768;2022-07-10T06:15:33;0.60;;;0.60;;
10831;SDS011;5469;48.574;8.768;2022-07-10T06:18:07;0.80;;;0.80;;
10831;SDS011;5469;48.574;8.768;2022-07-10T06:20:40;0.60;;;0.60;;
10831;SDS011;5469;48.574;8.768;2022-07-10T06:23:13;1.20;;;0.70;;
10831;SDS011;5469;48.574;8.768;2022-07-10T06:25:47;0.70;;;0.70;;
10831;SDS011;5469;48.574;8.768;2022-07-10T06:28:21;2.90;;;1.03;;
10831;SDS011;5469;48.574;8.768;2022-07-10T06:30:56;1.07;;;0.87;;
10831;SDS011;5469;48.574;8.768;2022-07-10T06:33:29;4.67;;;1.07;;
10831;SDS011;5469;48.574;8.768;2022-07-10T06:36:04;0.43;;;0.43;;
10831;SDS011;5469;48.574;8.768;2022-07-10T06:38:38;0.80;;;0.73;;
10831;SDS011;5469;48.574;8.768;2022-07-10T06:41:13;0.60;;;0.60;;
10831;SDS011;5469;48.574;8.768;2022-07-10T06:43:46;1.03;;;0.50;;
10831;SDS011;5469;48.574;8.768;2022-07-10T06:46:21;1.70;;;0.77;;
10831;SDS011;5469;48.574;8.768;2022-07-10T06:48:54;0.60;;;0.40;;
10831;SDS011;5469;48.574;8.768;2022-07-10T06:51:27;0.93;;;0.63;;
10831;SDS011;5469;48.574;8.768;2022-07-10T06:54:00;0.73;;;0.53;;
10831;SDS011;5469;48.574;8.768;2022-07-10T06:56:34;0.33;;;0.33;;
10831;SDS011;5469;48.574;8.768;2022-07-10T06:59:07;1.50;;;0.40;;
10831;SDS011;5469;48.574;8.768;2022-07-10T07:01:42;1.63;;;0.60;;
10831;SDS011;5469;48.574;8.768;2022-07-10T07:04:15;1.07;;;0.60;;
10831;SDS011;5469;48.574;8.768;2022-07-10T07:06:49;0.50;;;0.50;;
10831;SDS011;5469;48.574;8.768;2022-07-10T07:09:22;1.87;;;0.80;;
10831;SDS011;5469;48.574;8.768;2022-07-10T07:11:56;0.50;;;0.50;;
10831;SDS011;5469;48.574;8.768;2022-07-10T07:14:29;0.53;;;0.53;;
10831;SDS011;5469;48.574;8.768;2022-07-10T07:17:05;2.30;;;0.97;;
10831;SDS011;5469;48.574;8.768;2022-07-10T07:19:40;0.67;;;0.67;;
10831;SDS011;5469;48.574;8.768;2022-07-10T07:22:35;0.57;;;0.57;;
10831;SDS011;5469;48.574;8.768;2022-07-10T07:25:26;0.80;;;0.73;;
10831;SDS011;5469;48.574;8.768;2022-07-10T07:27:59;1.57;;;0.60;;
10831;SDS011;5469;48.574;8.768;2022-07-10T07:30:33;0.60;;;0.60;;
10831;SDS011;5469;48.574;8.768;2022-07-10T07:33:08;0.53;;;0.50;;
10831;SDS011;5469;48.574;8.768;2022-07-10T07:35:41;0.43;;;0.43;;
10831;SDS011;5469;48.574;8.768;2022-07-10T07:38:15;0.90;;;0.57;;
10831;SDS011;5469;48.574;8.768;2022-07-10T07:40:49;0.30;;;0.30;;
10831;SDS011;5469;48.574;8.768;2022-07-10T07:43:22;1.53;;;0.60;;
10831;SDS011;5469;48.574;8.768;2022-07-10T07:45:55;0.97;;;0.73;;
10831;SDS011;5469;48.574;8.768;2022-07-10T07:48:30;1.03;;;0.60;;
10831;SDS011;5469;48.574;8.768;2022-07-10T07:51:04;0.63;;;0.63;;
10831;SDS011;5469;48.574;8.768;2022-07-10T07:53:38;0.77;;;0.73;;
10831;SDS011;5469;48.574;8.768;2022-07-10T07:56:11;1.00;;;0.70;;
10831;SDS011;5469;48.574;8.768;2022-07-10T07:58:44;0.53;;;0.53;;
10831;SDS011;5469;48.574;8.768;2022-07-10T08:01:18;0.50;;;0.50;;
10831;SDS011;5469;48.574;8.768;2022-07-10T08:03:53;0.50;;;0.43;;
10831;SDS011;5469;48.574;8.768;2022-07-10T08:06:27;2.30;;;0.70;;
10831;SDS011;5469;48.574;8.768;2022-07-10T08:09:00;0.50;;;0.40;;
10831;SDS011;5469;48.574;8.768;2022-07-10T08:11:33;1.67;;;0.93;;
10831;SDS011;5469;48.574;8.768;2022-07-10T08:14:07;1.03;;;0.70;;
10831;SDS011;5469;48.574;8.768;2022-07-10T08:16:40;1.30;;;0.57;;
10831;SDS011;5469;48.574;8.768;2022-07-10T08:19:15;0.73;;;0.40;;
10831;SDS011;5469;48.574;8.768;2022-07-10T08:21:49;0.83;;;0.50;;
10831;SDS011;5469;48.574;8.768;2022-07-10T08:24:22;0.47;;;0.47;;
10831;SDS011;5469;48.574;8.768;2022-07-10T08:26:56;2.07;;;0.77;;
10831;SDS011;5469;48.574;8.768;2022-07-10T08:29:29;0.50;;;0.50;;
10831;SDS011;5469;48.574;8.768;2022-07-10T08:32:02;0.60;;;0.60;;
10831;SDS011;5469;48.574;8.768;2022-07-10T08:34:38;0.60;;;0.60;;
10831;SDS011;5469;48.574;8.768;2022-07-10T08:37:11;0.70;;;0.70;;
10831;SDS011;5469;48.574;8.768;2022-07-10T08:39:44;0.70;;;0.70;;
10831;SDS011;5469;48.574;8.768;2022-07-10T08:42:18;1.10;;;0.73;;
10831;SDS011;5469;48.574;8.768;2022-07-10T08:44:53;1.07;;;0.77;;
10831;SDS011;5469;48.574;8.768;2022-07-10T08:47:26;1.13;;;0.70;;
10831;SDS011;5469;48.574;8.768;2022-07-10T08:50:04;0.53;;;0.50;;
10831;SDS011;5469;48.574;8.768;2022-07-10T08:52:48;2.50;;;0.93;;
10831;SDS011;5469;48.574;8.768;2022-07-10T08:55:27;1.30;;;0.80;;
10831;SDS011;5469;48.574;8.768;2022-07-10T08:58:00;0.67;;;0.67;;
10831;SDS011;5469;48.574;8.768;2022-07-10T09:00:36;0.60;;;0.60;;
10831;SDS011;5469;48.574;8.768;2022-07-10T09:03:09;0.70;;;0.70;;
10831;SDS011;5469;48.574;8.768;2022-07-10T09:05:44;0.80;;;0.80;;
10831;SDS011;5469;48.574;8.768;2022-07-10T09:08:22;1.33;;;0.70;;
10831;SDS011;5469;48.574;8.768;2022-07-10T09:13:51;0.80;;;0.80;;
10831;SDS011;5469;48.574;8.768;2022-07-10T09:16:25;2.10;;;1.00;;
10831;SDS011;5469;48.574;8.768;2022-07-10T09:19:14;1.07;;;0.83;;
10831;SDS011;5469;48.574;8.768;2022-07-10T09:21:51;0.83;;;0.73;;
10831;SDS011;5469;48.574;8.768;2022-07-10T09:24:25;2.30;;;0.73;;
10831;SDS011;5469;48.574;8.768;2022-07-10T09:26:59;0.87;;;0.80;;
10831;SDS011;5469;48.574;8.768;2022-07-10T09:29:44;1.80;;;0.80;;
10831;SDS011;5469;48.574;8.768;2022-07-10T09:32:18;0.73;;;0.70;;
10831;SDS011;5469;48.574;8.768;2022-07-10T09:34:52;0.83;;;0.60;;
10831;SDS011;5469;48.574;8.768;2022-07-10T09:37:47;1.97;;;0.97;;
10831;SDS011;5469;48.574;8.768;2022-07-10T09:40:22;0.90;;;0.90;;
10831;SDS011;5469;48.574;8.768;2022-07-10T09:43:00;1.40;;;0.70;;
10831;SDS011;5469;48.574;8.768;2022-07-10T09:45:33;0.50;;;0.50;;
10831;SDS011;5469;48.574;8.768;2022-07-10T09:48:07;1.10;;;0.90;;
10831;SDS011;5469;48.574;8.768;2022-07-10T09:50:41;1.00;;;0.90;;
10831;SDS011;5469;48.574;8.768;2022-07-10T09:53:16;0.70;;;0.70;;
10831;SDS011;5469;48.574;8.768;2022-07-10T09:55:50;1.43;;;0.83;;
10831;SDS011;5469;48.574;8.768;2022-07-10T09:58:23;0.57;;;0.47;;
10831;SDS011;5469;48.574;8.768;2022-07-10T10:01:02;0.97;;;0.90;;
10831;SDS011;5469;48.574;8.768;2022-07-10T10:03:37;0.73;;;0.60;;
10831;SDS011;5469;48.574;8.768;2022-07-10T10:06:11;1.40;;;0.80;;
10831;SDS011;5469;48.574;8.768;2022-07-10T10:08:51;1.43;;;0.80;;
10831;SDS011;5469;48.574;8.768;2022-07-10T10:11:28;1.03;;;0.77;;
10831;SDS011;5469;48.574;8.768;2022-07-10T10:14:06;1.60;;;0.90;;
10831;SDS011;5469;48.574;8.768;2022-07-10T10:16:40;1.37;;;0.67;;
10831;SDS011;5469;48.574;8.768;2022-07-10T10:19:18;0.80;;;0.80;;
10831;SDS011;5469;48.574;8.768;2022-07-10T10:22:09;1.07;;;0.90;;
10831;SDS011;5469;48.574;8.768;2022-07-10T10:24:48;0.80;;;0.80;;
10831;SDS011;5469;48.574;8.768;2022-07-10T10:27:23;4.20;;;1.00;;
10831;SDS011;5469;48.574;8.768;2022-07-10T10:29:57;1.00;;;0.87;;
10831;SDS011;5469;48.574;8.768;2022-07-10T10:32:32;1.60;;;0.93;;
10831;SDS011;5469;48.574;8.768;2022-07-10T10:35:06;0.87;;;0.83;;
10831;SDS011;5469;48.574;8.768;2022-07-10T10:37:41;0.70;;;0.70;;
10831;SDS011;5469;48.574;8.768;2022-07-10T10:40:31;0.77;;;0.77;;
10831;SDS011;5469;48.574;8.768;2022-07-10T10:43:15;0.80;;;0.80;;
10831;SDS011;5469;48.574;8.768;2022-07-10T10:45:49;1.27;;;0.70;;
10831;SDS011;5469;48.574;8.768;2022-07-10T10:48:23;0.90;;;0.90;;
10831;SDS011;5469;48.574;8.768;2022-07-10T10:50:57;2.60;;;0.75;;
10831;SDS011;5469;48.574;8.768;2022-07-10T10:53:31;0.88;;;0.82;;
10831;SDS011;5469;48.574;8.768;2022-07-10T10:56:24;1.13;;;0.97;;
10831;SDS011;5469;48.574;8.768;2022-07-10T10:58:58;0.95;;;0.95;;
10831;SDS011;5469;48.574;8.768;2022-07-10T11:01:31;1.70;;;0.70;;
10831;SDS011;5469;48.574;8.768;2022-07-10T11:04:15;1.00;;;0.67;;
10831;SDS011;5469;48.574;8.768;2022-07-10T11:06:50;0.80;;;0.73;;
10831;SDS011;5469;48.574;8.768;2022-07-10T11:09:25;0.80;;;0.73;;
10831;SDS011;5469;48.574;8.768;2022-07-10T11:12:01;2.10;;;0.70;;
10831;SDS011;5469;48.574;8.768;2022-07-10T11:14:37;1.10;;;0.85;;
10831;SDS011;5469;48.574;8.768;2022-07-10T11:17:11;0.95;;;0.88;;
10831;SDS011;5469;48.574;8.768;2022-07-10T11:19:45;1.02;;;0.90;;
10831;SDS011;5469;48.574;8.768;2022-07-10T11:22:23;2.00;;;0.70;;
10831;SDS011;5469;48.574;8.768;2022-07-10T11:25:19;1.80;;;0.75;;
10831;SDS011;5469;48.574;8.768;2022-07-10T11:28:07;0.88;;;0.73;;
10831;SDS011;5469;48.574;8.768;2022-07-10T11:30:49;2.03;;;0.90;;
10831;SDS011;5469;48.574;8.768;2022-07-10T11:33:24;0.98;;;0.80;;
10831;SDS011;5469;48.574;8.768;2022-07-10T11:35:58;0.63;;;0.63;;
10831;SDS011;5469;48.574;8.768;2022-07-10T11:38:45;0.73;;;0.63;;
10831;SDS011;5469;48.574;8.768;2022-07-10T11:41:19;1.33;;;0.60;;
10831;SDS011;5469;48.574;8.768;2022-07-10T11:43:56;1.40;;;0.60;;
10831;SDS011;5469;48.574;8.768;2022-07-10T11:46:33;2.70;;;0.70;;
10831;SDS011;5469;48.574;8.768;2022-07-10T11:49:09;1.50;;;0.60;;
10831;SDS011;5469;48.574;8.768;2022-07-10T11:51:46;0.60;;;0.60;;
10831;SDS011;5469;48.574;8.768;2022-07-10T11:54:19;0.90;;;0.90;;
10831;SDS011;5469;48.574;8.768;2022-07-10T11:56:53;0.65;;;0.65;;
10831;SDS011;5469;48.574;8.768;2022-07-10T11:59:28;1.15;;;0.60;;
10831;SDS011;5469;48.574;8.768;2022-07-10T12:02:01;1.42;;;0.90;;
10831;SDS011;5469;48.574;8.768;2022-07-10T12:04:35;2.58;;;1.75;;
10831;SDS011;5469;48.574;8.768;2022-07-10T12:07:09;1.48;;;1.30;;
10831;SDS011;5469;48.574;8.768;2022-07-10T12:09:42;2.50;;;0.73;;
10831;SDS011;5469;48.574;8.768;2022-07-10T12:12:26;0.75;;;0.75;;
10831;SDS011;5469;48.574;8.768;2022-07-10T12:15:01;2.05;;;0.55;;
10831;SDS011;5469;48.574;8.768;2022-07-10T12:17:34;0.20;;;0.20;;
10831;SDS011;5469;48.574;8.768;2022-07-10T12:20:09;1.02;;;0.60;;
10831;SDS011;5469;48.574;8.768;2022-07-10T12:22:43;3.72;;;0.80;;
10831;SDS011;5469;48.574;8.768;2022-07-10T12:25:17;1.23;;;0.70;;
10831;SDS011;5469;48.574;8.768;2022-07-10T12:27:54;0.57;;;0.50;;
10831;SDS011;5469;48.574;8.768;2022-07-10T12:30:38;1.00;;;0.77;;
10831;SDS011;5469;48.574;8.768;2022-07-10T12:33:13;0.40;;;0.40;;
10831;SDS011;5469;48.574;8.768;2022-07-10T12:35:50;0.75;;;0.40;;
10831;SDS011;5469;48.574;8.768;2022-07-10T12:38:25;0.25;;;0.25;;
10831;SDS011;5469;48.574;8.768;2022-07-10T12:41:06;0.63;;;0.40;;
10831;SDS011;5469;48.574;8.768;2022-07-10T12:43:41;0.85;;;0.30;;
10831;SDS011;5469;48.574;8.768;2022-07-10T12:46:17;0.15;;;0.15;;
10831;SDS011;5469;48.574;8.768;2022-07-10T12:49:05;1.10;;;0.45;;
10831;SDS011;5469;48.574;8.768;2022-07-10T12:51:42;0.08;;;0.08;;
10831;SDS011;5469;48.574;8.768;2022-07-10T12:54:35;0.50;;;0.22;;
10831;SDS011;5469;48.574;8.768;2022-07-10T12:57:10;0.38;;;0.20;;
10831;SDS011;5469;48.574;8.768;2022-07-10T12:59:44;0.93;;;0.40;;
10831;SDS011;5469;48.574;8.768;2022-07-10T13:02:20;0.43;;;0.30;;
10831;SDS011;5469;48.574;8.768;2022-07-10T13:04:55;0.17;;;0.15;;
10831;SDS011;5469;48.574;8.768;2022-07-10T13:07:30;1.27;;;0.40;;
10831;SDS011;5469;48.574;8.768;2022-07-10T13:10:05;2.33;;;0.52;;
10831;SDS011;5469;48.574;8.768;2022-07-10T13:12:39;0.35;;;0.20;;
10831;SDS011;5469;48.574;8.768;2022-07-10T13:15:13;0.20;;;0.20;;
10831;SDS011;5469;48.574;8.768;2022-07-10T13:17:54;0.20;;;0.20;;
10831;SDS011;5469;48.574;8.768;2022-07-10T13:20:28;0.63;;;0.20;;
10831;SDS011;5469;48.574;8.768;2022-07-10T13:23:02;0.20;;;0.20;;
10831;SDS011;5469;48.574;8.768;2022-07-10T13:25:36;1.23;;;0.38;;
10831;SDS011;5469;48.574;8.768;2022-07-10T13:28:10;0.32;;;0.20;;
10831;SDS011;5469;48.574;8.768;2022-07-10T13:30:44;0.30;;;0.28;;
10831;SDS011;5469;48.574;8.768;2022-07-10T13:33:20;0.30;;;0.13;;
10831;SDS011;5469;48.574;8.768;2022-07-10T13:35:55;0.30;;;0.20;;
10831;SDS011;5469;48.574;8.768;2022-07-10T13:38:31;0.32;;;0.22;;
10831;SDS011;5469;48.574;8.768;2022-07-10T13:41:08;0.30;;;0.30;;
10831;SDS011;5469;48.574;8.768;2022-07-10T13:43:42;0.90;;;0.30;;
10831;SDS011;5469;48.574;8.768;2022-07-10T13:46:15;0.35;;;0.20;;
10831;SDS011;5469;48.574;8.768;2022-07-10T13:48:50;0.60;;;0.47;;
10831;SDS011;5469;48.574;8.768;2022-07-10T13:51:24;0.57;;;0.30;;
10831;SDS011;5469;48.574;8.768;2022-07-10T13:53:58;0.30;;;0.20;;
10831;SDS011;5469;48.574;8.768;2022-07-10T13:56:31;1.75;;;0.30;;
10831;SDS011;5469;48.574;8.768;2022-07-10T13:59:05;0.80;;;0.30;;
10831;SDS011;5469;48.574;8.768;2022-07-10T14:01:39;0.13;;;0.13;;
10831;SDS011;5469;48.574;8.768;2022-07-10T14:04:14;1.75;;;0.20;;
10831;SDS011;5469;48.574;8.768;2022-07-10T14:06:48;0.30;;;0.30;;
10831;SDS011;5469;48.574;8.768;2022-07-10T14:09:21;0.10;;;0.10;;
10831;SDS011;5469;48.574;8.768;2022-07-10T14:11:55;0.25;;;0.22;;
10831;SDS011;5469;48.574;8.768;2022-07-10T14:14:29;0.32;;;0.20;;
10831;SDS011;5469;48.574;8.768;2022-07-10T14:17:02;0.52;;;0.20;;
10831;SDS011;5469;48.574;8.768;2022-07-10T14:19:38;0.40;;;0.20;;
10831;SDS011;5469;48.574;8.768;2022-07-10T14:22:12;0.93;;;0.25;;
10831;SDS011;5469;48.574;8.768;2022-07-10T14:24:46;0.52;;;0.10;;
10831;SDS011;5469;48.574;8.768;2022-07-10T14:27:19;0.75;;;0.30;;
10831;SDS011;5469;48.574;8.768;2022-07-10T14:29:55;0.20;;;0.15;;
10831;SDS011;5469;48.574;8.768;2022-07-10T14:32:28;0.38;;;0.28;;
10831;SDS011;5469;48.574;8.768;2022-07-10T14:35:04;0.20;;;0.20;;
10831;SDS011;5469;48.574;8.768;2022-07-10T14:37:38;0.38;;;0.20;;
10831;SDS011;5469;48.574;8.768;2022-07-10T14:40:11;0.08;;;0.05;;
10831;SDS011;5469;48.574;8.768;2022-07-10T14:42:45;0.20;;;0.10;;
10831;SDS011;5469;48.574;8.768;2022-07-10T14:45:18;0.35;;;0.10;;
10831;SDS011;5469;48.574;8.768;2022-07-10T14:47:53;0.98;;;0.15;;
10831;SDS011;5469;48.574;8.768;2022-07-10T14:50:29;0.57;;;0.20;;
10831;SDS011;5469;48.574;8.768;2022-07-10T14:53:02;0.10;;;0.10;;
10831;SDS011;5469;48.574;8.768;2022-07-10T14:55:37;0.70;;;0.10;;
10831;SDS011;5469;48.574;8.768;2022-07-10T14:58:11;0.38;;;0.25;;
10831;SDS011;5469;48.574;8.768;2022-07-10T15:00:44;0.50;;;0.25;;
10831;SDS011;5469;48.574;8.768;2022-07-10T15:03:18;0.40;;;0.20;;
10831;SDS011;5469;48.574;8.768;2022-07-10T15:05:53;0.20;;;0.20;;
10831;SDS011;5469;48.574;8.768;2022-07-10T15:08:28;2.38;;;0.50;;
10831;SDS011;5469;48.574;8.768;2022-07-10T15:11:03;0.38;;;0.32;;
10831;SDS011;5469;48.574;8.768;2022-07-10T15:13:38;1.48;;;0.40;;
10831;SDS011;5469;48.574;8.768;2022-07-10T15:16:12;0.35;;;0.15;;
10831;SDS011;5469;48.574;8.768;2022-07-10T15:18:46;1.15;;;0.30;;
10831;SDS011;5469;48.574;8.768;2022-07-10T15:21:21;0.22;;;0.10;;
10831;SDS011;5469;48.574;8.768;2022-07-10T15:23:56;0.30;;;0.20;;
10831;SDS011;5469;48.574;8.768;2022-07-10T15:26:29;0.38;;;0.20;;
10831;SDS011;5469;48.574;8.768;2022-07-10T15:29:03;0.32;;;0.20;;
10831;SDS011;5469;48.574;8.768;2022-07-10T15:31:36;1.35;;;0.20;;
10831;SDS011;5469;48.574;8.768;2022-07-10T15:34:10;0.45;;;0.25;;
10831;SDS011;5469;48.574;8.768;2022-07-10T15:36:47;0.50;;;0.30;;
10831;SDS011;5469;48.574;8.768;2022-07-10T15:39:21;0.98;;;0.40;;
10831;SDS011;5469;48.574;8.768;2022-07-10T15:41:54;0.10;;;0.10;;
10831;SDS011;5469;48.574;8.768;2022-07-10T15:44:27;0.30;;;0.13;;
10831;SDS011;5469;48.574;8.768;2022-07-10T15:47:01;0.10;;;0.10;;
10831;SDS011;5469;48.574;8.768;2022-07-10T15:49:35;0.38;;;0.30;;